Terminal Aerodrome Forecast
Issued by NWS Bismarck, ND

Home | Current Version | Previous Version | Text Only | Print | Product List | Glossary Off
Versions: 1 2 3 4 5 6 7 8 9 10 11 12 13 14 15 16

000
FTUS43 KBIS 062340
TAFISN
TAF
KISN 062340Z 0700/0724 34017G26KT P6SM -RA SCT008 OVC025
      TEMPO 0700/0703 4SM -RA BR BKN008 OVC015
     FM070300 33015G25KT P6SM VCSH SCT020 OVC040
     FM070700 33020G28KT P6SM OVC015
     FM071700 32015G25KT P6SM BKN025=

USA.gov is the U.S. government's official web portal to all federal, state and local government web resources and services.